MSP weather

Minneapolis-St Paul International/Wold-Chamberlain Airport
Minneapolis, Minnesota, United States

Public forecast

Using degrees Fahrenheit for public forecast. Weather courtesy of forecast.io.

Current aviation weather report (METAR) for Minneapolis-St Paul International/Wold-Chamberlain Airport

Retrieved 2020/04/01 09:53 UTC (1 hour ago):

KMSP 010953Z 13007KT 10SM FEW120 02/M02 A3004 RMK AO2 SLP176 T00221017

Aviation forecast (TAF) for Minneapolis-St Paul International/Wold-Chamberlain Airport

Retrieved 2020/04/01 06:24 UTC (5 hours ago):

TAF KMSP 010523Z 0106/0212 11006KT P6SM SCT150 FM011600 12010G18KT P6SM BKN100 FM012000 13014G22KT P6SM BKN050 FM012300 12012KT P6SM OVC035 PROB30 0205/0210 5SM -RA OVC025